Time;durP1;ratioP1;P1;durP2;ratioP2;P2;SDS_P1;SDS_P2;PMS_P1;PMS_P2;Temp;Humidity;BMP_temperature;BMP_pressure;BME280_temperature;BME280_humidity;BME280_pressure;Samples;Min_cycle;Max_cycle;Signal;HPM_P1;HPM_P2
2023/06/24 00:02:13;;;;;;;12.85;7.35;;;;;;;25.08;53.87;100027.95;1803318;79;21291;-80
2023/06/24 00:05:19;;;;;;;15.10;7.03;;;;;;;25.29;53.26;100024.61;1803414;79;21288;-81
2023/06/24 00:08:33;;;;;;;11.70;7.42;;;;;;;25.42;52.75;100020.69;1803539;79;21272;-82
2023/06/24 00:11:38;;;;;;;11.20;6.92;;;;;;;25.38;52.80;100014.53;1802290;79;21347;-82
2023/06/24 00:14:45;;;;;;;18.57;7.33;;;;;;;25.24;53.10;100012.30;1802188;79;21693;-82
2023/06/24 00:17:52;;;;;;;16.23;7.12;;;;;;;25.38;52.91;100010.33;1765824;79;21275;-82
2023/06/24 00:20:58;;;;;;;11.70;6.90;;;;;;;25.13;53.57;100013.99;1802856;79;21307;-81
2023/06/24 00:24:05;;;;;;;17.87;7.47;;;;;;;24.91;54.95;100012.25;1802578;79;21856;-80
2023/06/24 00:27:10;;;;;;;16.62;6.83;;;;;;;24.78;56.63;100006.36;1801159;79;21268;-80
2023/06/24 00:30:18;;;;;;;20.17;7.53;;;;;;;24.75;58.33;100007.78;1803314;79;21351;-81
2023/06/24 00:33:22;;;;;;;13.83;7.28;;;;;;;24.59;59.39;100006.05;1803697;79;21821;-82
2023/06/24 00:36:29;;;;;;;26.85;6.70;;;;;;;24.49;60.47;100004.07;1803506;79;21288;-81
2023/06/24 00:39:36;;;;;;;14.23;7.42;;;;;;;24.29;61.69;100003.99;1803752;79;21308;-82
2023/06/24 00:42:41;;;;;;;11.10;7.08;;;;;;;24.47;61.64;100000.73;1803614;79;21272;-81
2023/06/24 00:45:48;;;;;;;14.87;7.78;;;;;;;24.32;62.48;99997.27;1803654;79;21303;-81
2023/06/24 00:48:53;;;;;;;10.98;7.30;;;;;;;24.45;62.96;99994.55;1803504;79;21893;-80
2023/06/24 00:51:55;;;;;;;12.00;7.62;;;;;;;24.76;62.39;99991.83;1803581;79;21280;-81
2023/06/24 00:55:04;;;;;;;11.15;7.50;;;;;;;24.79;62.12;99985.66;1802484;79;21316;-81
2023/06/24 00:58:10;;;;;;;17.82;7.78;;;;;;;24.50;62.74;99987.58;1802108;79;21276;-81
2023/06/24 01:01:18;;;;;;;10.58;6.65;;;;;;;24.41;63.25;99983.64;1802616;79;21335;-81
2023/06/24 01:04:24;;;;;;;13.78;7.60;;;;;;;24.67;62.36;99983.98;1802619;79;21300;-81
2023/06/24 01:07:30;;;;;;;10.32;7.55;;;;;;;24.70;62.55;99983.44;1803416;79;21275;-80
2023/06/24 01:10:36;;;;;;;19.40;8.45;;;;;;;24.78;62.33;99987.63;1803525;79;21826;-81
2023/06/24 01:13:43;;;;;;;23.80;8.33;;;;;;;24.67;62.88;99978.39;1803625;79;21892;-81
2023/06/24 01:17:09;;;;;;;23.95;8.23;;;;;;;24.69;63.07;99980.90;1801931;79;21346;-81
2023/06/24 01:20:36;;;;;;;16.90;8.33;;;;;;;24.69;62.91;99985.93;1803491;79;21792;-81
2023/06/24 01:24:02;;;;;;;13.25;8.00;;;;;;;24.21;64.30;99989.42;1803643;79;21303;-80
2023/06/24 01:27:56;;;;;;;12.33;7.85;;;;;;;24.26;64.09;99983.01;1802288;78;21879;-81
2023/06/24 01:31:38;;;;;;;15.30;7.35;;;;;;;24.15;64.18;99980.75;1802907;79;21299;-81
2023/06/24 01:35:03;;;;;;;15.32;8.13;;;;;;;24.12;64.22;99973.46;1802824;79;21280;-81
2023/06/24 01:38:13;;;;;;;16.40;8.43;;;;;;;24.12;64.43;99972.90;1803532;79;21329;-81
2023/06/24 01:41:18;;;;;;;24.02;7.53;;;;;;;24.03;64.76;99975.10;1803640;79;21319;-81
2023/06/24 01:44:24;;;;;;;16.48;8.38;;;;;;;23.79;65.37;99976.11;1803257;79;21335;-81
2023/06/24 01:47:34;;;;;;;17.30;8.18;;;;;;;24.00;64.75;99984.05;1803432;79;21272;-81
2023/06/24 01:50:40;;;;;;;16.73;8.05;;;;;;;24.00;64.71;99984.89;1803267;79;21848;-80
2023/06/24 01:53:52;;;;;;;14.75;7.45;;;;;;;23.93;64.76;99984.28;1803409;79;21319;-81
2023/06/24 01:56:51;;;;;;;12.63;7.87;;;;;;;24.20;63.64;99977.13;1803626;79;21785;-81
2023/06/24 01:59:47;;;;;;;25.65;8.93;;;;;;;24.17;63.44;99977.67;1803648;79;21260;-81
2023/06/24 02:02:52;;;;;;;17.48;8.20;;;;;;;24.09;63.58;99981.84;1803640;79;21253;-81
2023/06/24 02:05:53;;;;;;;12.85;7.83;;;;;;;23.92;63.95;99972.27;1802707;79;21287;-80
2023/06/24 02:08:59;;;;;;;15.15;7.37;;;;;;;23.78;64.52;99968.30;1803485;79;21295;-81
2023/06/24 02:11:52;;;;;;;13.13;6.92;;;;;;;24.08;63.65;99968.97;1803271;79;21268;-81
2023/06/24 02:14:58;;;;;;;14.43;6.80;;;;;;;23.98;63.81;99966.98;1803834;79;21810;-81
2023/06/24 02:18:04;;;;;;;10.20;7.08;;;;;;;24.06;63.79;99967.02;1803568;79;21283;-81
2023/06/24 02:21:12;;;;;;;10.45;7.03;;;;;;;24.26;63.62;99969.59;1802848;79;21302;-81
2023/06/24 02:24:18;;;;;;;15.60;6.42;;;;;;;24.52;62.67;99963.00;1786404;79;21319;-81
2023/06/24 02:27:24;;;;;;;14.47;6.60;;;;;;;24.22;63.94;99953.93;1801185;79;21936;-81
2023/06/24 02:30:30;;;;;;;10.93;6.45;;;;;;;24.37;63.94;99956.82;1801887;79;21315;-81
2023/06/24 02:33:37;;;;;;;11.00;6.30;;;;;;;24.55;63.51;99951.23;1803626;79;21802;-81
2023/06/24 02:36:42;;;;;;;9.80;6.47;;;;;;;24.79;62.73;99945.95;1802443;79;21303;-81
2023/06/24 02:39:50;;;;;;;14.20;6.47;;;;;;;25.25;61.37;99944.56;1803462;79;21300;-81
2023/06/24 02:42:56;;;;;;;10.65;5.85;;;;;;;25.49;60.63;99946.19;1803490;79;21900;-82
2023/06/24 02:46:02;;;;;;;8.78;5.37;;;;;;;25.78;59.72;99956.78;1803022;79;21838;-81
2023/06/24 02:49:08;;;;;;;7.00;5.15;;;;;;;26.17;58.80;99954.94;1803630;79;21813;-81
2023/06/24 02:52:13;;;;;;;10.68;6.35;;;;;;;26.57;57.70;99957.81;1803667;79;21350;-81
2023/06/24 02:55:12;;;;;;;9.70;5.42;;;;;;;26.92;56.41;99965.14;1803540;79;21296;-82
2023/06/24 02:58:09;;;;;;;8.70;5.30;;;;;;;27.28;54.97;99964.84;1803698;79;21845;-81
2023/06/24 03:01:24;;;;;;;9.63;5.60;;;;;;;27.38;54.67;99961.92;1803702;79;21287;-81
2023/06/24 03:04:29;;;;;;;9.25;4.60;;;;;;;27.47;54.46;99961.55;1803531;79;21264;-81
2023/06/24 03:07:36;;;;;;;10.40;5.22;;;;;;;27.90;53.01;99960.25;1803634;79;21276;-81
2023/06/24 03:10:35;;;;;;;5.85;4.45;;;;;;;28.17;52.14;99963.28;1803593;79;21292;-81
2023/06/24 03:13:43;;;;;;;5.85;4.42;;;;;;;28.39;51.53;99959.92;1803290;79;21292;-81
2023/06/24 03:17:00;;;;;;;8.65;4.97;;;;;;;28.35;51.36;99955.20;1802161;79;21324;-80
2023/06/24 03:20:08;;;;;;;7.08;4.78;;;;;;;28.46;51.03;99956.72;1801970;79;21264;-81
2023/06/24 03:23:14;;;;;;;9.35;4.62;;;;;;;28.71;50.01;99950.73;1803487;79;21276;-81
2023/06/24 03:26:21;;;;;;;10.18;4.72;;;;;;;28.94;48.84;99955.16;1802634;79;21315;-81
2023/06/24 03:29:28;;;;;;;7.55;4.65;;;;;;;29.08;48.21;99957.48;1798272;79;21838;-80
2023/06/24 03:32:36;;;;;;;6.80;4.03;;;;;;;29.22;47.23;99961.17;1796193;80;21265;-81
2023/06/24 03:35:36;;;;;;;7.08;4.72;;;;;;;29.36;46.63;99961.75;1795801;80;21300;-81
2023/06/24 03:38:32;;;;;;;7.15;4.28;;;;;;;29.64;45.60;99966.89;1794732;80;21801;-81
2023/06/24 03:41:18;;;;;;;21.23;4.55;;;;;;;29.79;44.55;99965.20;1794816;80;21546;-81
2023/06/24 03:44:11;;;;;;;10.53;3.95;;;;;;;29.93;44.40;99973.66;1796327;80;21817;-82
2023/06/24 03:47:16;;;;;;;9.75;4.55;;;;;;;29.92;44.06;99966.33;1794606;80;21288;-81
2023/06/24 03:50:21;;;;;;;11.70;4.22;;;;;;;29.99;44.17;99970.98;1796072;80;21334;-82
2023/06/24 03:53:27;;;;;;;10.10;3.90;;;;;;;30.11;44.20;99966.22;1796202;80;21323;-82
2023/06/24 03:56:33;;;;;;;6.67;3.85;;;;;;;30.23;43.76;99964.57;1795315;80;21304;-82
2023/06/24 03:59:41;;;;;;;7.78;3.70;;;;;;;30.41;43.30;99966.17;1796401;80;21280;-82
2023/06/24 04:02:47;;;;;;;11.38;4.78;;;;;;;30.66;42.81;99969.80;1796284;80;21276;-80
2023/06/24 04:05:53;;;;;;;9.68;4.08;;;;;;;30.88;42.56;99973.84;1795640;80;21849;-80
2023/06/24 04:08:58;;;;;;;7.12;3.70;;;;;;;30.92;42.35;99979.11;1796672;79;21182;-81
2023/06/24 04:12:04;;;;;;;6.30;3.85;;;;;;;31.18;41.60;99980.70;1796442;80;21303;-81
2023/06/24 04:15:11;;;;;;;6.40;3.62;;;;;;;31.04;41.58;99973.70;1795416;80;21288;-81
2023/06/24 04:18:17;;;;;;;7.83;3.75;;;;;;;31.12;41.61;99969.28;1795030;80;21295;-81
2023/06/24 04:21:23;;;;;;;7.17;3.42;;;;;;;31.24;40.79;99970.92;1795271;80;21339;-80
2023/06/24 04:24:29;;;;;;;17.27;4.50;;;;;;;31.05;41.15;99971.99;1796145;80;21253;-80
2023/06/24 04:27:35;;;;;;;8.93;4.15;;;;;;;31.06;40.82;99981.30;1795308;80;21319;-80
2023/06/24 04:30:41;;;;;;;6.75;4.00;;;;;;;30.90;41.29;99980.82;1796130;78;21299;-82
2023/06/24 04:33:47;;;;;;;6.50;4.10;;;;;;;30.85;41.57;99988.01;1796341;80;21280;-80
2023/06/24 04:36:53;;;;;;;7.22;4.20;;;;;;;30.98;40.77;99989.12;1794938;80;21339;-81
2023/06/24 04:40:00;;;;;;;5.75;4.33;;;;;;;30.87;40.75;99993.36;1796312;80;21276;-81
2023/06/24 04:43:05;;;;;;;12.95;4.25;;;;;;;30.77;40.98;99990.17;1796280;80;21276;-80
2023/06/24 04:46:06;;;;;;;6.70;4.30;;;;;;;30.96;40.52;99991.41;1795855;80;21292;-81
2023/06/24 04:49:11;;;;;;;8.98;4.33;;;;;;;30.98;40.32;99990.53;1796345;80;21265;-80
2023/06/24 04:52:18;;;;;;;7.30;3.95;;;;;;;31.02;40.40;99987.33;1794921;80;21814;-80
2023/06/24 04:55:25;;;;;;;14.10;4.37;;;;;;;31.03;40.48;99984.75;1796175;80;21288;-81
2023/06/24 04:58:32;;;;;;;12.23;4.03;;;;;;;31.38;40.39;99986.42;1794862;80;21311;-81
2023/06/24 05:01:38;;;;;;;13.68;4.10;;;;;;;31.72;39.79;99979.56;1796283;80;21292;-80
2023/06/24 05:04:43;;;;;;;7.12;4.20;;;;;;;31.86;39.79;99971.01;1796301;80;21760;-81
2023/06/24 05:07:50;;;;;;;7.22;4.50;;;;;;;32.04;39.32;99970.47;1795159;80;21303;-81
2023/06/24 05:10:57;;;;;;;6.05;4.15;;;;;;;32.18;39.00;99971.17;1796405;80;21276;-81
2023/06/24 05:14:03;;;;;;;8.03;4.47;;;;;;;32.13;39.99;99964.25;1796431;80;21311;-81
2023/06/24 05:17:11;;;;;;;9.48;4.30;;;;;;;32.17;39.99;99963.85;1796410;80;21315;-81
2023/06/24 05:20:17;;;;;;;9.48;4.33;;;;;;;32.33;39.66;99969.07;1796233;80;21299;-80
2023/06/24 05:23:24;;;;;;;6.78;4.12;;;;;;;32.71;38.51;99981.47;1796193;80;21828;-81
2023/06/24 05:26:30;;;;;;;12.55;4.62;;;;;;;32.76;37.86;99971.39;1795498;80;21264;-80
2023/06/24 05:29:35;;;;;;;12.05;4.15;;;;;;;32.83;37.88;99969.46;1795820;80;21873;-80
2023/06/24 05:32:40;;;;;;;11.65;4.47;;;;;;;32.95;37.77;99967.42;1801177;78;21296;-81
2023/06/24 05:35:47;;;;;;;8.75;4.33;;;;;;;32.95;37.77;99967.42;1803295;79;21311;-81
2023/06/24 05:38:53;;;;;;;8.43;4.37;;;;;;;32.97;37.87;99968.73;1802574;79;21283;-81
2023/06/24 05:42:00;;;;;;;11.65;4.58;;;;;;;32.96;37.48;99966.25;1802105;79;21299;-81
2023/06/24 05:45:06;;;;;;;8.25;4.58;;;;;;;32.89;37.67;99959.66;1802992;79;21296;-81
2023/06/24 05:48:12;;;;;;;14.10;4.50;;;;;;;32.89;37.67;99959.66;1803230;79;21303;-81
2023/06/24 05:51:17;;;;;;;8.58;5.30;;;;;;;32.93;37.78;99962.66;1803011;79;21326;-81
2023/06/24 05:54:23;;;;;;;7.15;3.95;;;;;;;33.20;38.63;99960.88;1803507;79;21295;-81
2023/06/24 05:57:27;;;;;;;7.92;4.35;;;;;;;33.40;38.11;99957.08;1803775;79;21813;-81
2023/06/24 06:00:33;;;;;;;8.88;4.60;;;;;;;33.53;38.00;99963.16;1803400;79;21813;-81
2023/06/24 06:03:39;;;;;;;8.05;4.35;;;;;;;33.73;38.70;99959.58;1803603;79;21276;-81
2023/06/24 06:06:46;;;;;;;10.70;4.75;;;;;;;34.00;37.88;99962.58;1803710;79;21300;-81
2023/06/24 06:09:52;;;;;;;9.38;5.37;;;;;;;34.12;37.69;99960.45;1802971;79;21303;-81
2023/06/24 06:13:05;;;;;;;6.80;4.40;;;;;;;34.25;36.66;99949.44;1803573;79;21276;-81
2023/06/24 06:16:11;;;;;;;14.60;4.80;;;;;;;34.30;37.45;99944.98;1802527;79;21268;-81
2023/06/24 06:19:18;;;;;;;5.37;4.22;;;;;;;34.33;37.14;99945.69;1802736;79;21295;-82
2023/06/24 06:22:23;;;;;;;9.43;4.87;;;;;;;34.17;37.47;99948.06;1803506;79;21268;-81
2023/06/24 06:25:28;;;;;;;11.03;4.47;;;;;;;34.29;37.09;99948.97;1803410;79;21303;-81
2023/06/24 06:28:35;;;;;;;10.05;5.12;;;;;;;34.47;36.86;99947.47;1803258;79;21916;-81
2023/06/24 06:31:34;;;;;;;11.50;4.45;;;;;;;34.71;36.70;99939.67;1802565;79;21865;-81
2023/06/24 06:34:39;;;;;;;18.35;5.05;;;;;;;34.86;36.74;99940.45;1814454;79;21292;-81
2023/06/24 06:37:47;;;;;;;8.73;4.70;;;;;;;35.00;36.26;99939.59;1814434;79;21797;-81
2023/06/24 06:40:47;;;;;;;;;;;;;;;35.10;35.75;99949.70;1816633;79;21346;-81
2023/06/24 06:43:40;;;;;;;8.33;4.37;;;;;;;34.79;36.12;99936.77;1814216;79;20284;-81
2023/06/24 06:46:46;;;;;;;12.78;4.62;;;;;;;34.61;36.43;99938.09;1814252;79;21239;-81
2023/06/24 06:49:51;;;;;;;6.58;4.60;;;;;;;34.59;36.67;99933.36;1813386;79;21859;-82
2023/06/24 06:52:51;;;;;;;11.63;4.20;;;;;;;34.45;36.85;99930.76;1814334;79;21271;-82
2023/06/24 06:55:45;;;;;;;11.65;4.15;;;;;;;34.52;36.82;99932.47;1813972;79;21338;-81
2023/06/24 06:58:32;;;;;;;12.07;4.55;;;;;;;34.44;36.77;99931.94;1814357;79;21286;-81
2023/06/24 07:01:26;;;;;;;9.68;4.62;;;;;;;34.39;36.93;99942.64;1814058;79;21251;-81
2023/06/24 07:04:13;;;;;;;7.30;4.53;;;;;;;34.20;36.88;99936.01;1814441;79;21268;-81
2023/06/24 07:07:06;;;;;;;8.48;5.20;;;;;;;34.14;37.01;99938.22;1812785;79;21314;-82
2023/06/24 07:10:32;;;;;;;;;;;;;;;34.17;37.57;99933.28;1815858;79;21295;-82
2023/06/24 07:13:31;;;;;;;6.90;4.87;;;;;;;34.63;36.49;99934.33;1813005;79;20267;-82
2023/06/24 07:16:38;;;;;;;7.67;4.33;;;;;;;34.97;36.40;99923.27;1813849;79;21828;-82
2023/06/24 07:19:43;;;;;;;6.08;4.58;;;;;;;35.35;35.83;99925.03;1813833;79;21271;-82
2023/06/24 07:22:49;;;;;;;10.38;4.67;;;;;;;35.40;35.02;99927.66;1814350;79;21926;-82
2023/06/24 07:25:55;;;;;;;8.68;4.05;;;;;;;35.51;35.29;99923.78;1813829;79;21974;-82
2023/06/24 07:29:06;;;;;;;11.85;4.17;;;;;;;35.59;34.13;99925.70;1814428;79;21255;-82
2023/06/24 07:32:14;;;;;;;7.17;4.72;;;;;;;35.71;33.76;99924.30;1813803;79;21816;-82
2023/06/24 07:35:20;;;;;;;9.08;4.20;;;;;;;35.81;33.68;99924.42;1814329;79;21899;-82
2023/06/24 07:38:27;;;;;;;7.05;4.70;;;;;;;35.83;34.41;99922.87;1814716;79;21168;-81
2023/06/24 07:41:35;;;;;;;9.58;4.40;;;;;;;36.00;34.61;99929.55;1813443;79;21295;-81
2023/06/24 07:44:41;;;;;;;7.50;4.35;;;;;;;36.25;34.76;99928.34;1814416;79;21264;-81
2023/06/24 07:47:47;;;;;;;9.20;4.70;;;;;;;36.42;34.71;99922.98;1813270;79;21286;-81
2023/06/24 07:50:52;;;;;;;11.20;4.40;;;;;;;36.51;33.69;99927.97;1813456;79;21279;-82
2023/06/24 07:53:57;;;;;;;7.95;4.28;;;;;;;36.62;33.84;99929.72;1814401;79;21263;-81
2023/06/24 07:57:03;;;;;;;16.25;4.90;;;;;;;36.84;32.23;99932.58;1813142;79;21338;-82
2023/06/24 08:00:13;;;;;;;8.28;3.80;;;;;;;36.79;32.73;99930.00;1813969;79;21278;-82
2023/06/24 08:03:16;;;;;;;8.03;4.00;;;;;;;36.91;32.65;99929.16;1813275;79;21326;-82
2023/06/24 08:06:23;;;;;;;11.43;4.80;;;;;;;36.92;31.84;99933.67;1813661;79;21342;-82
2023/06/24 08:09:29;;;;;;;8.33;4.00;;;;;;;37.09;32.11;99929.09;1814384;79;21263;-81
2023/06/24 08:12:34;;;;;;;6.83;3.92;;;;;;;37.19;31.55;99927.73;1814447;79;21279;-81
2023/06/24 08:15:41;;;;;;;8.13;4.40;;;;;;;36.91;32.28;99939.97;1814174;79;21345;-81
2023/06/24 08:18:39;;;;;;;8.05;3.90;;;;;;;36.70;33.12;99933.59;1814345;79;21339;-81
2023/06/24 08:21:34;;;;;;;10.70;4.28;;;;;;;36.75;33.13;99937.03;1812961;79;21661;-81
2023/06/24 08:24:39;;;;;;;7.53;4.58;;;;;;;36.78;31.88;99932.62;1814460;79;21848;-81
2023/06/24 08:27:46;;;;;;;9.18;4.05;;;;;;;36.76;31.84;99924.44;1814588;79;21291;-81
2023/06/24 08:30:52;;;;;;;9.78;4.15;;;;;;;36.92;31.96;99931.64;1813966;79;21283;-81
2023/06/24 08:34:02;;;;;;;8.93;3.92;;;;;;;36.97;31.64;99927.70;1812529;79;21296;-81
2023/06/24 08:37:08;;;;;;;11.40;4.15;;;;;;;37.05;31.32;99923.88;1810872;79;21176;-82
2023/06/24 08:40:14;;;;;;;9.33;4.30;;;;;;;36.93;31.00;99922.49;1812024;79;21275;-81
2023/06/24 08:43:19;;;;;;;7.50;4.28;;;;;;;37.00;31.14;99917.84;1812091;79;21848;-81
2023/06/24 08:46:25;;;;;;;10.88;4.17;;;;;;;37.23;31.82;99913.80;1811339;79;21311;-82
2023/06/24 08:49:37;;;;;;;7.05;4.08;;;;;;;37.32;31.82;99918.73;1812091;79;21828;-81
2023/06/24 08:52:43;;;;;;;7.03;4.33;;;;;;;37.32;32.06;99914.46;1810567;79;21173;-81
2023/06/24 08:55:51;;;;;;;8.25;4.75;;;;;;;37.40;32.75;99910.39;1811866;79;21299;-81
2023/06/24 08:58:56;;;;;;;10.78;4.90;;;;;;;37.48;32.41;99912.25;1812242;79;21236;-81
2023/06/24 09:02:01;;;;;;;6.45;4.80;;;;;;;37.49;32.44;99912.47;1810888;79;21180;-81
2023/06/24 09:05:06;;;;;;;9.13;4.53;;;;;;;37.63;31.06;99918.55;1812286;79;21290;-81
2023/06/24 09:08:11;;;;;;;12.68;4.37;;;;;;;37.54;30.95;99919.33;1812306;79;21260;-82
2023/06/24 09:11:16;;;;;;;8.23;3.80;;;;;;;37.41;30.72;99917.17;1811689;79;21314;-82
2023/06/24 09:14:22;;;;;;;6.87;3.92;;;;;;;37.41;30.89;99914.33;1812171;79;21271;-81
2023/06/24 09:17:28;;;;;;;10.18;4.35;;;;;;;37.51;31.02;99913.77;1812041;79;21868;-82
2023/06/24 09:20:39;;;;;;;4.78;3.92;;;;;;;37.71;30.68;99913.27;1811921;79;21287;-82
2023/06/24 09:23:46;;;;;;;6.33;4.00;;;;;;;37.83;30.29;99909.47;1812383;79;21269;-82
2023/06/24 09:26:52;;;;;;;14.98;4.50;;;;;;;37.87;29.79;99909.59;1810900;79;21192;-81
2023/06/24 09:29:58;;;;;;;5.05;3.87;;;;;;;37.72;29.94;99913.48;1810571;79;21193;-81
2023/06/24 09:33:04;;;;;;;9.60;4.10;;;;;;;37.78;30.09;99914.03;1786473;79;21896;-81
2023/06/24 09:36:13;;;;;;;7.47;3.95;;;;;;;37.89;30.49;99906.61;1805508;79;21303;-82
2023/06/24 09:39:20;;;;;;;11.00;3.98;;;;;;;37.95;29.65;99904.30;1803701;79;21809;-83
2023/06/24 09:42:29;;;;;;;9.10;4.58;;;;;;;38.14;30.49;99908.63;1802782;79;21319;-80
2023/06/24 09:45:36;;;;;;;6.72;4.50;;;;;;;38.15;29.12;99900.29;1803762;79;21311;-82
2023/06/24 09:48:41;;;;;;;10.63;4.12;;;;;;;38.06;28.96;99893.95;1803675;79;21854;-82
2023/06/24 09:51:49;;;;;;;11.38;4.22;;;;;;;37.96;29.73;99893.92;1802370;79;21288;-81
2023/06/24 09:54:50;;;;;;;6.25;4.53;;;;;;;38.01;29.08;99899.95;1803702;79;21793;-81
2023/06/24 09:57:43;;;;;;;13.80;4.40;;;;;;;38.10;29.16;99893.44;1802552;79;21264;-81
2023/06/24 10:00:49;;;;;;;5.90;3.72;;;;;;;38.17;30.11;99892.20;1803209;79;22002;-82
2023/06/24 10:03:55;;;;;;;9.60;4.62;;;;;;;38.24;30.08;99879.50;1803355;79;21324;-81
2023/06/24 10:07:02;;;;;;;6.58;4.25;;;;;;;38.45;29.50;99874.09;1802384;79;21291;-82
2023/06/24 10:13:27;;;;;;;10.95;4.62;;;;;;;38.81;29.08;99877.92;1802312;79;21311;-81
2023/06/24 10:16:34;;;;;;;13.65;4.17;;;;;;;38.94;27.86;99867.77;1802588;79;21308;-81
2023/06/24 10:19:48;;;;;;;9.68;3.95;;;;;;;39.15;28.84;99861.63;1802921;79;21303;-82
2023/06/24 10:22:54;;;;;;;6.40;3.72;;;;;;;39.16;27.80;99856.98;1802754;79;21296;-82
2023/06/24 10:25:59;;;;;;;8.05;4.30;;;;;;;38.97;27.58;99857.02;1803050;79;21779;-81
2023/06/24 10:29:20;;;;;;;7.90;4.42;;;;;;;38.79;27.75;99857.48;1803709;79;21275;-82
2023/06/24 10:32:27;;;;;;;9.53;3.92;;;;;;;38.66;27.82;99850.23;1803576;79;21865;-81
2023/06/24 10:35:35;;;;;;;15.95;3.87;;;;;;;38.49;28.21;99847.25;1802457;79;21264;-82
2023/06/24 10:38:40;;;;;;;9.40;3.70;;;;;;;38.42;28.03;99841.97;1803772;79;21281;-81
2023/06/24 10:41:47;;;;;;;9.28;3.95;;;;;;;38.35;27.84;99842.06;1802477;79;21323;-81
2023/06/24 10:44:56;;;;;;;7.22;4.20;;;;;;;38.24;28.12;99839.52;1803380;79;21272;-82
2023/06/24 10:48:03;;;;;;;6.97;4.25;;;;;;;38.19;28.25;99833.28;1803763;79;21284;-81
2023/06/24 10:51:09;;;;;;;7.25;3.90;;;;;;;38.43;27.78;99834.45;1802901;79;21579;-82
2023/06/24 10:54:15;;;;;;;6.62;3.90;;;;;;;38.70;27.34;99829.71;1802303;79;21284;-81
2023/06/24 10:57:23;;;;;;;7.90;3.70;;;;;;;38.67;27.51;99829.02;1803651;79;21256;-82
2023/06/24 11:00:28;;;;;;;11.63;3.52;;;;;;;38.51;26.88;99836.87;1803373;79;21307;-82
2023/06/24 11:03:36;;;;;;;9.20;3.67;;;;;;;38.40;27.27;99830.11;1802690;79;21267;-81
2023/06/24 11:06:42;;;;;;;4.80;3.83;;;;;;;38.33;26.84;99824.45;1785287;79;21880;-81
2023/06/24 11:09:50;;;;;;;5.95;3.70;;;;;;;38.39;26.79;99819.27;1803306;79;21899;-81
2023/06/24 11:12:57;;;;;;;11.95;3.85;;;;;;;38.48;27.19;99828.44;1802402;79;21240;-82
2023/06/24 11:15:49;;;;;;;7.47;4.10;;;;;;;38.76;26.45;99829.65;1801850;79;21304;-82
2023/06/24 11:18:54;;;;;;;;;;;;;;;38.95;26.18;99820.82;1806206;79;21233;-82
2023/06/24 11:21:59;;;;;;;7.58;4.08;;;;;;;38.86;26.18;99822.48;1802079;79;20268;-83
2023/06/24 11:25:05;;;;;;;7.92;3.75;;;;;;;38.94;26.01;99810.59;1803529;79;21280;-82
2023/06/24 11:28:12;;;;;;;6.60;4.15;;;;;;;38.90;25.88;99793.38;1803557;79;21276;-81
2023/06/24 11:31:19;;;;;;;7.55;4.00;;;;;;;38.83;25.71;99814.69;1802832;79;21319;-83
2023/06/24 11:34:26;;;;;;;8.70;3.87;;;;;;;38.56;25.86;99808.81;1802433;79;21299;-81
2023/06/24 11:37:37;;;;;;;6.83;4.55;;;;;;;38.44;26.27;99813.85;1800933;79;21300;-83
2023/06/24 11:40:43;;;;;;;12.37;4.78;;;;;;;38.14;27.16;99806.45;1803173;79;21331;-81
2023/06/24 11:43:55;;;;;;;12.10;5.17;;;;;;;37.85;27.12;99825.19;1802844;79;21327;-82
2023/06/24 11:47:01;;;;;;;10.43;5.25;;;;;;;37.51;31.09;99843.06;1802002;79;21310;-82
2023/06/24 11:50:06;;;;;;;11.43;6.17;;;;;;;36.95;33.26;99840.33;1764899;79;21283;-82
2023/06/24 11:53:11;;;;;;;13.13;5.85;;;;;;;36.14;36.16;99829.57;1802096;79;21928;-82
2023/06/24 11:56:16;;;;;;;10.58;5.53;;;;;;;35.60;37.96;99813.59;1802815;79;21315;-82
2023/06/24 11:59:33;;;;;;;13.58;5.45;;;;;;;35.25;38.26;99809.77;1803522;79;21643;-82
2023/06/24 12:02:39;;;;;;;10.20;5.75;;;;;;;35.14;37.81;99803.47;1786600;79;21263;-82
2023/06/24 12:05:45;;;;;;;7.85;5.92;;;;;;;35.25;37.92;99798.41;1803431;79;21255;-82
2023/06/24 12:08:53;;;;;;;9.95;5.60;;;;;;;35.25;38.31;99794.73;1802021;79;21275;-81
2023/06/24 12:11:58;;;;;;;7.33;5.50;;;;;;;35.23;38.62;99792.82;1802225;79;21864;-82
2023/06/24 12:15:04;;;;;;;6.05;4.62;;;;;;;35.34;38.98;99784.91;1802301;79;21304;-81
2023/06/24 12:18:10;;;;;;;7.12;5.62;;;;;;;35.41;38.34;99780.63;1803618;79;21307;-82
2023/06/24 12:21:17;;;;;;;14.80;6.17;;;;;;;35.42;38.33;99774.58;1803208;79;21264;-82
2023/06/24 12:24:22;;;;;;;9.43;5.05;;;;;;;35.71;37.87;99772.13;1802951;79;21280;-83
2023/06/24 12:27:28;;;;;;;14.00;5.62;;;;;;;36.07;36.89;99767.55;1803631;79;21267;-82
2023/06/24 12:30:33;;;;;;;9.15;5.87;;;;;;;36.27;37.67;99762.24;1803427;79;21879;-82
2023/06/24 12:33:39;;;;;;;13.22;6.10;;;;;;;36.44;37.75;99758.89;1803327;79;21844;-82
2023/06/24 12:36:44;;;;;;;9.03;5.33;;;;;;;36.55;37.50;99755.14;1802599;79;21263;-82
2023/06/24 12:39:52;;;;;;;10.13;6.33;;;;;;;36.59;36.96;99755.25;1797350;78;21873;-81
2023/06/24 12:42:59;;;;;;;9.45;5.42;;;;;;;36.74;36.09;99762.16;1796450;80;21264;-82
2023/06/24 12:46:05;;;;;;;8.53;5.12;;;;;;;36.73;36.08;99747.69;1794806;80;21339;-82
2023/06/24 12:49:10;;;;;;;10.43;4.42;;;;;;;36.65;36.37;99754.38;1796127;80;21300;-82
2023/06/24 12:52:16;;;;;;;14.43;4.75;;;;;;;36.63;32.87;99748.23;1795512;80;21265;-82
2023/06/24 12:55:21;;;;;;;13.80;4.78;;;;;;;36.77;32.11;99748.63;1795290;80;21279;-82
2023/06/24 12:58:30;;;;;;;14.00;4.30;;;;;;;36.87;29.70;99742.37;1796440;80;21260;-82
2023/06/24 13:01:37;;;;;;;7.70;4.22;;;;;;;36.91;29.64;99746.78;1795407;80;21860;-82
2023/06/24 13:04:42;;;;;;;6.75;4.40;;;;;;;36.99;29.24;99743.76;1794670;80;21813;-82
2023/06/24 13:07:48;;;;;;;6.58;3.62;;;;;;;37.19;29.33;99744.66;1795327;80;21339;-82
2023/06/24 13:10:53;;;;;;;10.78;4.30;;;;;;;37.27;29.52;99745.68;1795824;80;21307;-82
2023/06/24 13:13:58;;;;;;;12.33;5.37;;;;;;;37.43;28.82;99750.78;1794749;80;21299;-81
2023/06/24 13:17:04;;;;;;;7.42;4.55;;;;;;;37.47;29.37;99746.59;1794955;80;21311;-83
2023/06/24 13:20:09;;;;;;;13.75;4.00;;;;;;;37.61;29.04;99758.34;1796173;80;21253;-82
2023/06/24 13:23:16;;;;;;;6.90;3.95;;;;;;;37.79;28.61;99753.88;1795289;80;21288;-80
2023/06/24 13:26:21;;;;;;;10.18;4.00;;;;;;;37.76;29.05;99754.61;1794957;80;21327;-81
2023/06/24 13:29:28;;;;;;;5.28;3.42;;;;;;;37.88;29.33;99749.42;1775137;80;21280;-81
2023/06/24 13:32:34;;;;;;;14.25;4.15;;;;;;;38.03;29.03;99745.67;1796344;80;21840;-82
2023/06/24 13:35:40;;;;;;;6.95;3.95;;;;;;;38.12;29.14;99735.46;1795600;80;21319;-81
2023/06/24 13:38:39;;;;;;;9.87;3.67;;;;;;;38.03;28.96;99726.30;1795357;80;21307;-81
2023/06/24 13:41:46;;;;;;;13.43;4.03;;;;;;;37.80;29.35;99721.89;1795170;80;21998;-82
2023/06/24 13:44:52;;;;;;;12.07;4.40;;;;;;;37.56;29.52;99722.98;1795010;80;21296;-81
2023/06/24 13:47:58;;;;;;;14.40;3.70;;;;;;;37.49;29.63;99726.47;1796481;80;21257;-81
2023/06/24 13:51:04;;;;;;;11.00;4.03;;;;;;;37.28;30.04;99731.05;1796452;80;21289;-81
2023/06/24 13:54:09;;;;;;;13.48;4.45;;;;;;;37.25;30.46;99759.46;1796418;80;21308;-81
2023/06/24 13:57:15;;;;;;;9.35;4.80;;;;;;;37.08;30.82;99787.76;1795078;80;21299;-81
2023/06/24 14:00:21;;;;;;;12.60;4.95;;;;;;;36.75;30.64;99790.31;1796226;80;21287;-81
2023/06/24 14:03:27;;;;;;;20.32;5.00;;;;;;;36.25;31.22;99766.06;1796295;80;21814;-81
2023/06/24 14:06:32;;;;;;;10.80;5.00;;;;;;;35.83;32.00;99770.66;1795168;80;21328;-80
2023/06/24 14:09:32;;;;;;;11.83;5.50;;;;;;;35.55;33.12;99783.98;1796099;80;21320;-81
2023/06/24 14:12:37;;;;;;;12.60;5.50;;;;;;;35.10;34.90;99800.50;1796281;80;21751;-81
2023/06/24 14:15:43;;;;;;;15.35;5.90;;;;;;;34.54;36.00;99788.76;1795762;80;21304;-80
2023/06/24 14:18:50;;;;;;;14.63;5.08;;;;;;;34.29;36.42;99788.60;1796299;80;21272;-80
2023/06/24 14:21:57;;;;;;;11.20;4.85;;;;;;;34.14;36.69;99770.80;1795076;80;21336;-80
2023/06/24 14:25:03;;;;;;;13.60;5.60;;;;;;;34.27;37.28;99773.94;1796031;80;21837;-81
2023/06/24 14:28:08;;;;;;;18.20;5.33;;;;;;;34.48;36.49;99769.66;1796302;80;21815;-81
2023/06/24 14:31:14;;;;;;;18.65;4.75;;;;;;;34.79;35.41;99774.03;1795520;80;21901;-80
2023/06/24 14:34:20;;;;;;;17.55;4.87;;;;;;;34.90;35.68;99779.48;1796324;80;21273;-80